sensor_id;sensor_type;location;lat;lon;timestamp;P1;durP1;ratioP1;P2;durP2;ratioP2
73823;SDS011;62154;54.914;73.444;2023-06-26T00:02:20;18.10;;;11.07;;
73823;SDS011;62154;54.914;73.444;2023-06-26T00:04:49;15.98;;;11.75;;
73823;SDS011;62154;54.914;73.444;2023-06-26T00:07:20;17.33;;;12.00;;
73823;SDS011;62154;54.914;73.444;2023-06-26T00:09:48;16.65;;;11.77;;
73823;SDS011;62154;54.914;73.444;2023-06-26T00:12:16;19.23;;;11.98;;
73823;SDS011;62154;54.914;73.444;2023-06-26T00:14:43;17.48;;;11.57;;
73823;SDS011;62154;54.914;73.444;2023-06-26T00:17:11;18.30;;;11.90;;
73823;SDS011;62154;54.914;73.444;2023-06-26T00:19:39;16.75;;;11.07;;
73823;SDS011;62154;54.914;73.444;2023-06-26T00:22:06;16.92;;;11.75;;
73823;SDS011;62154;54.914;73.444;2023-06-26T00:24:34;19.02;;;12.13;;
73823;SDS011;62154;54.914;73.444;2023-06-26T00:27:01;19.38;;;11.40;;
73823;SDS011;62154;54.914;73.444;2023-06-26T00:29:29;19.07;;;11.50;;
73823;SDS011;62154;54.914;73.444;2023-06-26T00:31:58;15.93;;;10.20;;
73823;SDS011;62154;54.914;73.444;2023-06-26T00:34:32;14.57;;;9.93;;
73823;SDS011;62154;54.914;73.444;2023-06-26T00:37:08;14.55;;;9.68;;
73823;SDS011;62154;54.914;73.444;2023-06-26T00:39:49;14.48;;;9.85;;
73823;SDS011;62154;54.914;73.444;2023-06-26T00:42:28;13.65;;;9.25;;
73823;SDS011;62154;54.914;73.444;2023-06-26T00:44:56;16.00;;;9.65;;
73823;SDS011;62154;54.914;73.444;2023-06-26T00:47:23;15.45;;;8.85;;
73823;SDS011;62154;54.914;73.444;2023-06-26T00:49:52;16.58;;;9.57;;
73823;SDS011;62154;54.914;73.444;2023-06-26T00:52:20;17.65;;;9.43;;
73823;SDS011;62154;54.914;73.444;2023-06-26T00:54:47;22.10;;;9.07;;
73823;SDS011;62154;54.914;73.444;2023-06-26T00:57:17;23.55;;;9.23;;
73823;SDS011;62154;54.914;73.444;2023-06-26T00:59:45;21.25;;;9.70;;
73823;SDS011;62154;54.914;73.444;2023-06-26T01:02:13;18.85;;;8.75;;
73823;SDS011;62154;54.914;73.444;2023-06-26T01:04:47;15.32;;;9.07;;
73823;SDS011;62154;54.914;73.444;2023-06-26T01:07:18;13.57;;;9.00;;
73823;SDS011;62154;54.914;73.444;2023-06-26T01:09:48;16.98;;;10.13;;
73823;SDS011;62154;54.914;73.444;2023-06-26T01:12:19;14.68;;;9.25;;
73823;SDS011;62154;54.914;73.444;2023-06-26T01:14:49;15.05;;;8.43;;
73823;SDS011;62154;54.914;73.444;2023-06-26T01:17:19;15.18;;;8.95;;
73823;SDS011;62154;54.914;73.444;2023-06-26T01:19:47;13.05;;;8.82;;
73823;SDS011;62154;54.914;73.444;2023-06-26T01:22:19;12.20;;;8.15;;
73823;SDS011;62154;54.914;73.444;2023-06-26T01:25:21;18.10;;;9.60;;
73823;SDS011;62154;54.914;73.444;2023-06-26T01:28:09;13.55;;;8.90;;
73823;SDS011;62154;54.914;73.444;2023-06-26T01:30:43;16.77;;;9.25;;
73823;SDS011;62154;54.914;73.444;2023-06-26T01:33:12;12.68;;;9.57;;
73823;SDS011;62154;54.914;73.444;2023-06-26T01:35:42;15.65;;;8.60;;
73823;SDS011;62154;54.914;73.444;2023-06-26T01:38:13;20.35;;;9.32;;
73823;SDS011;62154;54.914;73.444;2023-06-26T01:40:44;24.70;;;10.20;;
73823;SDS011;62154;54.914;73.444;2023-06-26T01:43:18;19.48;;;10.90;;
73823;SDS011;62154;54.914;73.444;2023-06-26T01:46:08;20.88;;;11.02;;
73823;SDS011;62154;54.914;73.444;2023-06-26T01:49:28;14.88;;;11.38;;
73823;SDS011;62154;54.914;73.444;2023-06-26T01:51:58;23.73;;;12.53;;
73823;SDS011;62154;54.914;73.444;2023-06-26T01:57:22;29.20;;;11.38;;
73823;SDS011;62154;54.914;73.444;2023-06-26T01:59:54;15.90;;;9.82;;
73823;SDS011;62154;54.914;73.444;2023-06-26T02:02:23;12.32;;;8.57;;
73823;SDS011;62154;54.914;73.444;2023-06-26T02:04:51;15.18;;;8.50;;
73823;SDS011;62154;54.914;73.444;2023-06-26T02:07:19;16.55;;;9.77;;
73823;SDS011;62154;54.914;73.444;2023-06-26T02:09:46;16.83;;;9.30;;
73823;SDS011;62154;54.914;73.444;2023-06-26T02:12:14;14.98;;;9.60;;
73823;SDS011;62154;54.914;73.444;2023-06-26T02:14:42;14.32;;;9.10;;
73823;SDS011;62154;54.914;73.444;2023-06-26T02:17:10;12.68;;;9.02;;
73823;SDS011;62154;54.914;73.444;2023-06-26T02:19:38;12.95;;;8.32;;
73823;SDS011;62154;54.914;73.444;2023-06-26T02:24:42;16.20;;;8.98;;
73823;SDS011;62154;54.914;73.444;2023-06-26T02:27:10;15.80;;;8.35;;
73823;SDS011;62154;54.914;73.444;2023-06-26T02:29:38;14.65;;;8.57;;
73823;SDS011;62154;54.914;73.444;2023-06-26T02:32:10;13.80;;;8.00;;
73823;SDS011;62154;54.914;73.444;2023-06-26T02:34:38;15.88;;;8.60;;
73823;SDS011;62154;54.914;73.444;2023-06-26T02:37:05;16.13;;;8.25;;
73823;SDS011;62154;54.914;73.444;2023-06-26T02:39:47;13.63;;;7.93;;
73823;SDS011;62154;54.914;73.444;2023-06-26T02:42:18;11.02;;;7.32;;
73823;SDS011;62154;54.914;73.444;2023-06-26T02:44:48;11.20;;;7.05;;
73823;SDS011;62154;54.914;73.444;2023-06-26T02:47:17;10.48;;;6.82;;
73823;SDS011;62154;54.914;73.444;2023-06-26T02:49:48;10.23;;;6.75;;
73823;SDS011;62154;54.914;73.444;2023-06-26T02:52:16;14.95;;;6.60;;
73823;SDS011;62154;54.914;73.444;2023-06-26T02:54:43;9.27;;;5.82;;
73823;SDS011;62154;54.914;73.444;2023-06-26T02:57:12;15.38;;;6.15;;
73823;SDS011;62154;54.914;73.444;2023-06-26T02:59:42;7.38;;;5.03;;
73823;SDS011;62154;54.914;73.444;2023-06-26T03:02:10;8.68;;;5.30;;
73823;SDS011;62154;54.914;73.444;2023-06-26T03:04:42;7.75;;;4.90;;
73823;SDS011;62154;54.914;73.444;2023-06-26T03:07:12;12.15;;;5.57;;
73823;SDS011;62154;54.914;73.444;2023-06-26T03:09:41;8.02;;;5.80;;
73823;SDS011;62154;54.914;73.444;2023-06-26T03:12:09;11.98;;;4.88;;
73823;SDS011;62154;54.914;73.444;2023-06-26T03:14:37;8.15;;;4.72;;
73823;SDS011;62154;54.914;73.444;2023-06-26T03:17:05;10.23;;;4.90;;
73823;SDS011;62154;54.914;73.444;2023-06-26T03:19:35;10.50;;;5.22;;
73823;SDS011;62154;54.914;73.444;2023-06-26T03:22:19;8.75;;;4.47;;
73823;SDS011;62154;54.914;73.444;2023-06-26T03:24:48;6.57;;;4.97;;
73823;SDS011;62154;54.914;73.444;2023-06-26T03:27:16;5.78;;;4.00;;
73823;SDS011;62154;54.914;73.444;2023-06-26T03:29:45;8.35;;;4.80;;
73823;SDS011;62154;54.914;73.444;2023-06-26T03:32:13;6.93;;;4.38;;
73823;SDS011;62154;54.914;73.444;2023-06-26T03:34:41;8.15;;;4.22;;
73823;SDS011;62154;54.914;73.444;2023-06-26T03:37:08;4.43;;;3.55;;
73823;SDS011;62154;54.914;73.444;2023-06-26T03:39:36;7.07;;;3.80;;
73823;SDS011;62154;54.914;73.444;2023-06-26T03:42:04;6.72;;;3.63;;
73823;SDS011;62154;54.914;73.444;2023-06-26T03:44:33;9.13;;;4.18;;
73823;SDS011;62154;54.914;73.444;2023-06-26T03:47:00;6.22;;;3.83;;
73823;SDS011;62154;54.914;73.444;2023-06-26T03:49:28;5.35;;;3.42;;
73823;SDS011;62154;54.914;73.444;2023-06-26T03:51:55;7.65;;;3.92;;
73823;SDS011;62154;54.914;73.444;2023-06-26T03:54:23;5.43;;;4.30;;
73823;SDS011;62154;54.914;73.444;2023-06-26T03:56:51;8.55;;;4.20;;
73823;SDS011;62154;54.914;73.444;2023-06-26T03:59:18;4.97;;;3.35;;
73823;SDS011;62154;54.914;73.444;2023-06-26T04:01:46;4.55;;;3.70;;
73823;SDS011;62154;54.914;73.444;2023-06-26T04:04:14;6.95;;;3.97;;
73823;SDS011;62154;54.914;73.444;2023-06-26T04:06:42;7.78;;;3.50;;
73823;SDS011;62154;54.914;73.444;2023-06-26T04:09:10;8.00;;;3.97;;
73823;SDS011;62154;54.914;73.444;2023-06-26T04:11:37;8.32;;;3.40;;
73823;SDS011;62154;54.914;73.444;2023-06-26T04:14:05;14.13;;;3.88;;
73823;SDS011;62154;54.914;73.444;2023-06-26T04:16:33;5.85;;;3.67;;
73823;SDS011;62154;54.914;73.444;2023-06-26T04:19:01;6.03;;;3.45;;
73823;SDS011;62154;54.914;73.444;2023-06-26T04:21:29;7.07;;;3.65;;
73823;SDS011;62154;54.914;73.444;2023-06-26T04:23:58;5.88;;;4.10;;
73823;SDS011;62154;54.914;73.444;2023-06-26T04:26:26;4.53;;;3.20;;
73823;SDS011;62154;54.914;73.444;2023-06-26T04:28:54;8.05;;;3.67;;
73823;SDS011;62154;54.914;73.444;2023-06-26T04:31:22;10.07;;;4.13;;
73823;SDS011;62154;54.914;73.444;2023-06-26T04:33:50;5.43;;;3.80;;
73823;SDS011;62154;54.914;73.444;2023-06-26T04:36:18;8.93;;;3.80;;
73823;SDS011;62154;54.914;73.444;2023-06-26T04:38:45;6.68;;;3.55;;
73823;SDS011;62154;54.914;73.444;2023-06-26T04:41:14;5.03;;;3.61;;
73823;SDS011;62154;54.914;73.444;2023-06-26T04:43:42;6.20;;;3.60;;
73823;SDS011;62154;54.914;73.444;2023-06-26T04:46:10;4.70;;;3.50;;
73823;SDS011;62154;54.914;73.444;2023-06-26T04:48:38;7.47;;;3.90;;
73823;SDS011;62154;54.914;73.444;2023-06-26T04:51:05;5.43;;;3.50;;
73823;SDS011;62154;54.914;73.444;2023-06-26T04:53:33;7.05;;;3.65;;
73823;SDS011;62154;54.914;73.444;2023-06-26T04:56:00;5.75;;;3.75;;
73823;SDS011;62154;54.914;73.444;2023-06-26T04:58:29;4.95;;;3.30;;
73823;SDS011;62154;54.914;73.444;2023-06-26T05:00:57;6.40;;;3.53;;
73823;SDS011;62154;54.914;73.444;2023-06-26T05:03:25;8.40;;;3.97;;
73823;SDS011;62154;54.914;73.444;2023-06-26T05:05:53;9.43;;;3.33;;
73823;SDS011;62154;54.914;73.444;2023-06-26T05:08:21;10.90;;;4.30;;
73823;SDS011;62154;54.914;73.444;2023-06-26T05:10:53;6.25;;;3.53;;
73823;SDS011;62154;54.914;73.444;2023-06-26T05:13:25;10.43;;;3.85;;
73823;SDS011;62154;54.914;73.444;2023-06-26T05:15:53;6.18;;;3.45;;
73823;SDS011;62154;54.914;73.444;2023-06-26T05:18:21;5.60;;;3.60;;
73823;SDS011;62154;54.914;73.444;2023-06-26T05:20:48;4.93;;;3.63;;
73823;SDS011;62154;54.914;73.444;2023-06-26T05:23:17;5.30;;;3.03;;
73823;SDS011;62154;54.914;73.444;2023-06-26T05:25:46;7.53;;;3.75;;
73823;SDS011;62154;54.914;73.444;2023-06-26T05:28:14;8.57;;;3.38;;
73823;SDS011;62154;54.914;73.444;2023-06-26T05:30:42;5.72;;;3.40;;
73823;SDS011;62154;54.914;73.444;2023-06-26T05:33:10;5.10;;;3.35;;
73823;SDS011;62154;54.914;73.444;2023-06-26T05:35:39;6.30;;;3.13;;
73823;SDS011;62154;54.914;73.444;2023-06-26T05:38:09;6.50;;;3.60;;
73823;SDS011;62154;54.914;73.444;2023-06-26T05:40:37;5.57;;;3.53;;
73823;SDS011;62154;54.914;73.444;2023-06-26T05:43:10;8.20;;;3.42;;
73823;SDS011;62154;54.914;73.444;2023-06-26T05:45:38;4.78;;;2.95;;
73823;SDS011;62154;54.914;73.444;2023-06-26T05:48:07;3.97;;;3.20;;
73823;SDS011;62154;54.914;73.444;2023-06-26T05:50:35;5.25;;;3.42;;
73823;SDS011;62154;54.914;73.444;2023-06-26T05:53:03;5.05;;;3.38;;
73823;SDS011;62154;54.914;73.444;2023-06-26T05:55:32;6.20;;;3.63;;
73823;SDS011;62154;54.914;73.444;2023-06-26T05:58:00;5.13;;;3.30;;
73823;SDS011;62154;54.914;73.444;2023-06-26T06:00:29;8.30;;;3.42;;
73823;SDS011;62154;54.914;73.444;2023-06-26T06:02:57;9.48;;;3.42;;
73823;SDS011;62154;54.914;73.444;2023-06-26T06:05:25;3.85;;;3.08;;
73823;SDS011;62154;54.914;73.444;2023-06-26T06:07:53;3.60;;;3.13;;
73823;SDS011;62154;54.914;73.444;2023-06-26T06:10:20;5.07;;;3.33;;
73823;SDS011;62154;54.914;73.444;2023-06-26T06:12:48;5.53;;;3.25;;
73823;SDS011;62154;54.914;73.444;2023-06-26T06:15:16;9.07;;;3.50;;
73823;SDS011;62154;54.914;73.444;2023-06-26T06:17:44;8.02;;;3.65;;
73823;SDS011;62154;54.914;73.444;2023-06-26T06:20:12;5.45;;;3.63;;
73823;SDS011;62154;54.914;73.444;2023-06-26T06:22:39;6.97;;;3.75;;
73823;SDS011;62154;54.914;73.444;2023-06-26T06:25:07;7.32;;;3.60;;
73823;SDS011;62154;54.914;73.444;2023-06-26T06:27:35;7.80;;;3.00;;
73823;SDS011;62154;54.914;73.444;2023-06-26T06:30:03;4.18;;;3.45;;
73823;SDS011;62154;54.914;73.444;2023-06-26T06:32:33;7.88;;;3.60;;
73823;SDS011;62154;54.914;73.444;2023-06-26T06:35:01;4.28;;;3.30;;
73823;SDS011;62154;54.914;73.444;2023-06-26T06:37:39;4.90;;;4.22;;
73823;SDS011;62154;54.914;73.444;2023-06-26T06:40:10;15.15;;;3.97;;
73823;SDS011;62154;54.914;73.444;2023-06-26T06:42:40;6.57;;;3.65;;
73823;SDS011;62154;54.914;73.444;2023-06-26T06:45:07;5.93;;;3.22;;
73823;SDS011;62154;54.914;73.444;2023-06-26T06:47:35;9.25;;;3.72;;
73823;SDS011;62154;54.914;73.444;2023-06-26T06:50:03;11.93;;;3.75;;
73823;SDS011;62154;54.914;73.444;2023-06-26T06:52:38;15.43;;;4.27;;
73823;SDS011;62154;54.914;73.444;2023-06-26T06:55:07;12.93;;;4.45;;
73823;SDS011;62154;54.914;73.444;2023-06-26T06:57:35;9.07;;;3.80;;
73823;SDS011;62154;54.914;73.444;2023-06-26T07:00:09;7.35;;;3.60;;
73823;SDS011;62154;54.914;73.444;2023-06-26T07:02:38;7.00;;;3.50;;
73823;SDS011;62154;54.914;73.444;2023-06-26T07:05:07;4.85;;;3.38;;
73823;SDS011;62154;54.914;73.444;2023-06-26T07:07:36;6.82;;;3.47;;
73823;SDS011;62154;54.914;73.444;2023-06-26T07:10:05;3.60;;;2.72;;
73823;SDS011;62154;54.914;73.444;2023-06-26T07:12:38;6.90;;;3.20;;
73823;SDS011;62154;54.914;73.444;2023-06-26T07:15:06;8.90;;;3.35;;
73823;SDS011;62154;54.914;73.444;2023-06-26T07:17:34;14.38;;;4.60;;
73823;SDS011;62154;54.914;73.444;2023-06-26T07:20:05;11.10;;;3.70;;
73823;SDS011;62154;54.914;73.444;2023-06-26T07:22:37;7.94;;;3.67;;
73823;SDS011;62154;54.914;73.444;2023-06-26T07:25:06;6.70;;;3.63;;
73823;SDS011;62154;54.914;73.444;2023-06-26T07:27:40;7.85;;;3.90;;
73823;SDS011;62154;54.914;73.444;2023-06-26T07:30:08;5.57;;;3.58;;
73823;SDS011;62154;54.914;73.444;2023-06-26T07:32:36;8.68;;;3.53;;
73823;SDS011;62154;54.914;73.444;2023-06-26T07:35:05;19.08;;;4.30;;
73823;SDS011;62154;54.914;73.444;2023-06-26T07:37:32;5.30;;;3.30;;
73823;SDS011;62154;54.914;73.444;2023-06-26T07:40:00;5.57;;;3.08;;
73823;SDS011;62154;54.914;73.444;2023-06-26T07:42:28;4.78;;;3.90;;
73823;SDS011;62154;54.914;73.444;2023-06-26T07:44:56;8.18;;;4.15;;
73823;SDS011;62154;54.914;73.444;2023-06-26T07:47:23;6.93;;;3.30;;
73823;SDS011;62154;54.914;73.444;2023-06-26T07:49:51;3.63;;;3.28;;
73823;SDS011;62154;54.914;73.444;2023-06-26T07:52:19;6.32;;;4.28;;
73823;SDS011;62154;54.914;73.444;2023-06-26T07:54:46;8.90;;;4.20;;
73823;SDS011;62154;54.914;73.444;2023-06-26T07:57:13;8.98;;;4.50;;
73823;SDS011;62154;54.914;73.444;2023-06-26T07:59:41;5.72;;;3.75;;
73823;SDS011;62154;54.914;73.444;2023-06-26T08:02:08;5.85;;;4.15;;
73823;SDS011;62154;54.914;73.444;2023-06-26T08:04:36;6.00;;;3.80;;
73823;SDS011;62154;54.914;73.444;2023-06-26T08:07:03;9.32;;;4.47;;
73823;SDS011;62154;54.914;73.444;2023-06-26T08:09:31;7.10;;;4.43;;
73823;SDS011;62154;54.914;73.444;2023-06-26T08:11:59;12.60;;;4.93;;
73823;SDS011;62154;54.914;73.444;2023-06-26T08:14:27;7.20;;;4.20;;
73823;SDS011;62154;54.914;73.444;2023-06-26T08:16:55;10.80;;;5.18;;
73823;SDS011;62154;54.914;73.444;2023-06-26T08:19:22;12.63;;;5.57;;
73823;SDS011;62154;54.914;73.444;2023-06-26T08:21:49;8.52;;;5.03;;
73823;SDS011;62154;54.914;73.444;2023-06-26T08:24:17;7.90;;;4.53;;
73823;SDS011;62154;54.914;73.444;2023-06-26T08:26:47;11.48;;;6.63;;
73823;SDS011;62154;54.914;73.444;2023-06-26T08:29:15;13.32;;;8.82;;
73823;SDS011;62154;54.914;73.444;2023-06-26T08:31:43;12.75;;;7.20;;
73823;SDS011;62154;54.914;73.444;2023-06-26T08:34:10;12.30;;;7.07;;
73823;SDS011;62154;54.914;73.444;2023-06-26T08:36:39;9.93;;;5.35;;
73823;SDS011;62154;54.914;73.444;2023-06-26T08:39:07;7.28;;;6.07;;
73823;SDS011;62154;54.914;73.444;2023-06-26T08:41:35;7.30;;;4.72;;
73823;SDS011;62154;54.914;73.444;2023-06-26T08:44:05;14.05;;;6.38;;
73823;SDS011;62154;54.914;73.444;2023-06-26T08:46:33;10.93;;;6.45;;
73823;SDS011;62154;54.914;73.444;2023-06-26T08:49:01;13.13;;;6.95;;
73823;SDS011;62154;54.914;73.444;2023-06-26T08:51:41;12.55;;;7.78;;
73823;SDS011;62154;54.914;73.444;2023-06-26T08:54:28;8.40;;;5.65;;
73823;SDS011;62154;54.914;73.444;2023-06-26T08:57:06;10.75;;;5.47;;
73823;SDS011;62154;54.914;73.444;2023-06-26T08:59:43;9.35;;;5.90;;
73823;SDS011;62154;54.914;73.444;2023-06-26T09:02:18;9.93;;;4.78;;
73823;SDS011;62154;54.914;73.444;2023-06-26T09:04:47;9.35;;;5.07;;
73823;SDS011;62154;54.914;73.444;2023-06-26T09:07:18;8.73;;;5.03;;
73823;SDS011;62154;54.914;73.444;2023-06-26T09:09:45;9.05;;;5.32;;
73823;SDS011;62154;54.914;73.444;2023-06-26T09:12:13;13.73;;;6.38;;
73823;SDS011;62154;54.914;73.444;2023-06-26T09:14:40;26.05;;;9.40;;
73823;SDS011;62154;54.914;73.444;2023-06-26T09:17:08;12.60;;;7.10;;
73823;SDS011;62154;54.914;73.444;2023-06-26T09:19:37;10.60;;;4.78;;
73823;SDS011;62154;54.914;73.444;2023-06-26T09:22:10;6.88;;;4.72;;
73823;SDS011;62154;54.914;73.444;2023-06-26T09:24:41;7.72;;;5.80;;
73823;SDS011;62154;54.914;73.444;2023-06-26T09:27:18;13.07;;;6.47;;
73823;SDS011;62154;54.914;73.444;2023-06-26T09:29:49;10.45;;;6.75;;
73823;SDS011;62154;54.914;73.444;2023-06-26T09:32:17;11.73;;;6.50;;
73823;SDS011;62154;54.914;73.444;2023-06-26T09:34:45;7.85;;;4.60;;
73823;SDS011;62154;54.914;73.444;2023-06-26T09:37:12;8.50;;;5.32;;
73823;SDS011;62154;54.914;73.444;2023-06-26T09:39:43;9.75;;;6.40;;
73823;SDS011;62154;54.914;73.444;2023-06-26T09:42:15;11.00;;;6.22;;
73823;SDS011;62154;54.914;73.444;2023-06-26T09:44:45;28.77;;;6.63;;
73823;SDS011;62154;54.914;73.444;2023-06-26T09:47:16;9.70;;;5.65;;
73823;SDS011;62154;54.914;73.444;2023-06-26T09:49:51;11.60;;;5.50;;
73823;SDS011;62154;54.914;73.444;2023-06-26T09:52:21;15.10;;;5.55;;
73823;SDS011;62154;54.914;73.444;2023-06-26T09:55:09;12.88;;;5.85;;
73823;SDS011;62154;54.914;73.444;2023-06-26T09:57:38;18.75;;;5.38;;
73823;SDS011;62154;54.914;73.444;2023-06-26T10:00:07;15.35;;;5.38;;
73823;SDS011;62154;54.914;73.444;2023-06-26T10:02:41;11.83;;;5.20;;
73823;SDS011;62154;54.914;73.444;2023-06-26T10:05:11;7.47;;;3.95;;
73823;SDS011;62154;54.914;73.444;2023-06-26T10:07:39;9.18;;;4.78;;
73823;SDS011;62154;54.914;73.444;2023-06-26T10:10:07;12.38;;;4.38;;
73823;SDS011;62154;54.914;73.444;2023-06-26T10:12:35;7.68;;;4.40;;
73823;SDS011;62154;54.914;73.444;2023-06-26T10:15:03;10.85;;;4.88;;
73823;SDS011;62154;54.914;73.444;2023-06-26T10:17:34;10.50;;;4.63;;
73823;SDS011;62154;54.914;73.444;2023-06-26T10:20:03;7.43;;;4.63;;
73823;SDS011;62154;54.914;73.444;2023-06-26T10:22:37;11.57;;;4.55;;
73823;SDS011;62154;54.914;73.444;2023-06-26T10:25:21;8.68;;;4.00;;
73823;SDS011;62154;54.914;73.444;2023-06-26T10:27:54;8.50;;;3.88;;
73823;SDS011;62154;54.914;73.444;2023-06-26T10:30:25;8.07;;;3.92;;
73823;SDS011;62154;54.914;73.444;2023-06-26T10:32:56;9.23;;;4.55;;
73823;SDS011;62154;54.914;73.444;2023-06-26T10:35:24;5.18;;;3.35;;
73823;SDS011;62154;54.914;73.444;2023-06-26T10:37:54;6.88;;;4.10;;
73823;SDS011;62154;54.914;73.444;2023-06-26T10:40:39;5.68;;;3.60;;
73823;SDS011;62154;54.914;73.444;2023-06-26T10:43:09;6.55;;;3.50;;
73823;SDS011;62154;54.914;73.444;2023-06-26T10:45:37;5.30;;;3.33;;
73823;SDS011;62154;54.914;73.444;2023-06-26T10:48:12;4.97;;;3.30;;
73823;SDS011;62154;54.914;73.444;2023-06-26T10:50:41;7.80;;;3.33;;
73823;SDS011;62154;54.914;73.444;2023-06-26T10:53:21;7.47;;;3.50;;
73823;SDS011;62154;54.914;73.444;2023-06-26T10:56:03;7.60;;;2.97;;
73823;SDS011;62154;54.914;73.444;2023-06-26T11:06:37;6.10;;;2.80;;
73823;SDS011;62154;54.914;73.444;2023-06-26T11:14:26;12.23;;;3.60;;
73823;SDS011;62154;54.914;73.444;2023-06-26T11:16:57;5.88;;;3.17;;
73823;SDS011;62154;54.914;73.444;2023-06-26T11:19:25;5.95;;;2.83;;
73823;SDS011;62154;54.914;73.444;2023-06-26T11:21:58;6.90;;;3.20;;
73823;SDS011;62154;54.914;73.444;2023-06-26T11:24:27;5.72;;;2.88;;
73823;SDS011;62154;54.914;73.444;2023-06-26T11:27:01;7.60;;;3.17;;
73823;SDS011;62154;54.914;73.444;2023-06-26T11:29:30;5.97;;;3.22;;
73823;SDS011;62154;54.914;73.444;2023-06-26T11:31:58;6.90;;;3.00;;
73823;SDS011;62154;54.914;73.444;2023-06-26T11:34:32;6.53;;;3.10;;
73823;SDS011;62154;54.914;73.444;2023-06-26T11:37:11;4.90;;;3.00;;
73823;SDS011;62154;54.914;73.444;2023-06-26T11:39:41;6.63;;;3.50;;
73823;SDS011;62154;54.914;73.444;2023-06-26T11:42:08;5.55;;;3.20;;
73823;SDS011;62154;54.914;73.444;2023-06-26T11:44:41;4.68;;;3.00;;
73823;SDS011;62154;54.914;73.444;2023-06-26T11:47:16;9.52;;;3.53;;
73823;SDS011;62154;54.914;73.444;2023-06-26T11:49:46;6.95;;;3.58;;
73823;SDS011;62154;54.914;73.444;2023-06-26T11:52:16;5.93;;;3.10;;
73823;SDS011;62154;54.914;73.444;2023-06-26T11:54:44;7.57;;;2.70;;
73823;SDS011;62154;54.914;73.444;2023-06-26T11:57:15;7.05;;;2.65;;
73823;SDS011;62154;54.914;73.444;2023-06-26T11:59:44;8.05;;;2.17;;
73823;SDS011;62154;54.914;73.444;2023-06-26T12:02:13;6.97;;;2.10;;
73823;SDS011;62154;54.914;73.444;2023-06-26T12:04:41;6.32;;;2.60;;
73823;SDS011;62154;54.914;73.444;2023-06-26T12:07:12;5.85;;;2.30;;
73823;SDS011;62154;54.914;73.444;2023-06-26T12:09:45;8.38;;;2.33;;
73823;SDS011;62154;54.914;73.444;2023-06-26T12:12:15;6.75;;;2.78;;
73823;SDS011;62154;54.914;73.444;2023-06-26T12:14:44;6.90;;;1.73;;
73823;SDS011;62154;54.914;73.444;2023-06-26T12:17:13;6.18;;;1.80;;
73823;SDS011;62154;54.914;73.444;2023-06-26T12:19:44;3.40;;;2.13;;
73823;SDS011;62154;54.914;73.444;2023-06-26T12:22:17;5.78;;;1.80;;
73823;SDS011;62154;54.914;73.444;2023-06-26T12:24:46;3.47;;;1.90;;
73823;SDS011;62154;54.914;73.444;2023-06-26T12:27:15;3.80;;;2.17;;
73823;SDS011;62154;54.914;73.444;2023-06-26T12:29:51;5.45;;;1.90;;
73823;SDS011;62154;54.914;73.444;2023-06-26T12:32:22;4.88;;;1.85;;
73823;SDS011;62154;54.914;73.444;2023-06-26T12:34:52;4.43;;;2.10;;
73823;SDS011;62154;54.914;73.444;2023-06-26T12:37:19;6.18;;;2.15;;
73823;SDS011;62154;54.914;73.444;2023-06-26T12:39:54;4.65;;;2.05;;
73823;SDS011;62154;54.914;73.444;2023-06-26T12:42:24;7.78;;;2.35;;
73823;SDS011;62154;54.914;73.444;2023-06-26T12:44:53;5.97;;;1.63;;
73823;SDS011;62154;54.914;73.444;2023-06-26T12:47:26;5.20;;;1.90;;
73823;SDS011;62154;54.914;73.444;2023-06-26T12:49:57;7.13;;;2.10;;
73823;SDS011;62154;54.914;73.444;2023-06-26T12:52:25;8.80;;;2.20;;
73823;SDS011;62154;54.914;73.444;2023-06-26T12:54:53;9.70;;;2.20;;
73823;SDS011;62154;54.914;73.444;2023-06-26T12:57:22;6.07;;;1.63;;
73823;SDS011;62154;54.914;73.444;2023-06-26T12:59:50;6.80;;;2.13;;
73823;SDS011;62154;54.914;73.444;2023-06-26T13:02:17;3.78;;;1.65;;
73823;SDS011;62154;54.914;73.444;2023-06-26T13:04:45;3.85;;;1.60;;
73823;SDS011;62154;54.914;73.444;2023-06-26T13:07:12;7.82;;;1.90;;
73823;SDS011;62154;54.914;73.444;2023-06-26T13:09:39;8.10;;;1.80;;
73823;SDS011;62154;54.914;73.444;2023-06-26T13:12:07;4.45;;;1.80;;
73823;SDS011;62154;54.914;73.444;2023-06-26T13:14:35;5.00;;;1.98;;
73823;SDS011;62154;54.914;73.444;2023-06-26T13:17:03;4.57;;;1.67;;
73823;SDS011;62154;54.914;73.444;2023-06-26T13:19:30;3.40;;;1.90;;
73823;SDS011;62154;54.914;73.444;2023-06-26T13:21:58;3.83;;;1.77;;
73823;SDS011;62154;54.914;73.444;2023-06-26T13:24:26;5.78;;;1.98;;
73823;SDS011;62154;54.914;73.444;2023-06-26T13:26:54;4.38;;;2.15;;
73823;SDS011;62154;54.914;73.444;2023-06-26T13:29:22;6.47;;;1.80;;
73823;SDS011;62154;54.914;73.444;2023-06-26T13:31:52;3.70;;;1.83;;
73823;SDS011;62154;54.914;73.444;2023-06-26T13:34:27;6.82;;;2.08;;
73823;SDS011;62154;54.914;73.444;2023-06-26T13:36:58;4.35;;;2.17;;
73823;SDS011;62154;54.914;73.444;2023-06-26T13:39:26;10.23;;;2.13;;
73823;SDS011;62154;54.914;73.444;2023-06-26T13:41:54;5.90;;;2.38;;
73823;SDS011;62154;54.914;73.444;2023-06-26T13:44:21;8.35;;;2.35;;
73823;SDS011;62154;54.914;73.444;2023-06-26T13:46:49;14.18;;;2.22;;
73823;SDS011;62154;54.914;73.444;2023-06-26T13:49:16;8.68;;;2.40;;
73823;SDS011;62154;54.914;73.444;2023-06-26T13:51:44;4.10;;;2.13;;
73823;SDS011;62154;54.914;73.444;2023-06-26T13:54:13;10.40;;;2.42;;
73823;SDS011;62154;54.914;73.444;2023-06-26T13:56:40;4.22;;;2.00;;
73823;SDS011;62154;54.914;73.444;2023-06-26T13:59:08;9.95;;;3.38;;
73823;SDS011;62154;54.914;73.444;2023-06-26T14:01:35;9.15;;;3.25;;
73823;SDS011;62154;54.914;73.444;2023-06-26T14:04:03;7.15;;;2.50;;
73823;SDS011;62154;54.914;73.444;2023-06-26T14:06:30;8.20;;;2.54;;
73823;SDS011;62154;54.914;73.444;2023-06-26T14:08:59;7.20;;;2.88;;
73823;SDS011;62154;54.914;73.444;2023-06-26T14:11:26;7.85;;;2.85;;
73823;SDS011;62154;54.914;73.444;2023-06-26T14:13:54;4.93;;;2.72;;
73823;SDS011;62154;54.914;73.444;2023-06-26T14:16:21;8.73;;;2.70;;
73823;SDS011;62154;54.914;73.444;2023-06-26T14:18:49;4.90;;;2.33;;
73823;SDS011;62154;54.914;73.444;2023-06-26T14:21:16;9.63;;;2.60;;
73823;SDS011;62154;54.914;73.444;2023-06-26T14:23:44;13.18;;;2.85;;
73823;SDS011;62154;54.914;73.444;2023-06-26T14:26:14;6.90;;;2.42;;
73823;SDS011;62154;54.914;73.444;2023-06-26T14:28:42;7.07;;;2.60;;
73823;SDS011;62154;54.914;73.444;2023-06-26T14:31:10;5.07;;;2.20;;
73823;SDS011;62154;54.914;73.444;2023-06-26T14:33:37;10.30;;;2.10;;
73823;SDS011;62154;54.914;73.444;2023-06-26T14:36:05;5.90;;;2.80;;
73823;SDS011;62154;54.914;73.444;2023-06-26T14:38:33;4.70;;;2.63;;
73823;SDS011;62154;54.914;73.444;2023-06-26T14:41:00;11.70;;;2.67;;
73823;SDS011;62154;54.914;73.444;2023-06-26T14:43:28;10.38;;;2.75;;
73823;SDS011;62154;54.914;73.444;2023-06-26T14:45:55;7.25;;;2.60;;
73823;SDS011;62154;54.914;73.444;2023-06-26T14:48:23;5.38;;;2.25;;
73823;SDS011;62154;54.914;73.444;2023-06-26T14:50:50;4.63;;;2.50;;
73823;SDS011;62154;54.914;73.444;2023-06-26T14:53:18;5.88;;;2.50;;
73823;SDS011;62154;54.914;73.444;2023-06-26T14:55:45;7.40;;;2.38;;
73823;SDS011;62154;54.914;73.444;2023-06-26T14:58:13;9.60;;;2.58;;
73823;SDS011;62154;54.914;73.444;2023-06-26T15:00:40;5.63;;;2.42;;
73823;SDS011;62154;54.914;73.444;2023-06-26T15:03:08;4.95;;;2.00;;